Time;durP1;ratioP1;P1;durP2;ratioP2;P2;SDS_P1;SDS_P2;PMS_P1;PMS_P2;Temp;Humidity;BMP_temperature;BMP_pressure;BME280_temperature;BME280_humidity;BME280_pressure;Samples;Min_cycle;Max_cycle;Signal;HPM_P1;HPM_P2
2023/06/28 00:00:06;;;;;;;8.45;4.93;;;;;;;16.49;91.32;101823.81;4996944;28;20117;-55
2023/06/28 00:02:35;;;;;;;6.43;4.28;;;;;;;16.39;92.15;101826.28;4995363;28;20504;-55
2023/06/28 00:05:02;;;;;;;;;;;;;;;16.42;87.07;101828.97;4995035;28;20044;-55
2023/06/28 00:07:27;;;;;;;9.52;4.18;;;;;;;16.26;92.14;101830.47;4993442;28;19965;-55
2023/06/28 00:09:53;;;;;;;6.57;3.92;;;;;;;16.25;92.69;101823.44;4995387;28;20127;-55
2023/06/28 00:12:20;;;;;;;7.45;4.13;;;;;;;16.28;93.30;101818.22;4997248;28;20037;-55
2023/06/28 00:14:45;;;;;;;8.18;4.45;;;;;;;16.29;94.22;101830.53;4996769;28;20030;-54
2023/06/28 00:17:11;;;;;;;10.07;4.30;;;;;;;16.27;92.19;101829.63;4998137;28;20022;-54
2023/06/28 00:19:36;;;;;;;8.02;4.47;;;;;;;16.27;91.54;101843.66;4995091;28;20428;-54
2023/06/28 00:22:02;;;;;;;7.03;4.25;;;;;;;16.27;90.80;101832.25;4996744;28;20473;-55
2023/06/28 00:24:27;;;;;;;9.23;3.92;;;;;;;16.22;91.89;101823.41;4995927;28;20030;-54
2023/06/28 00:26:52;;;;;;;8.57;5.10;;;;;;;16.21;92.36;101822.53;4997061;28;20034;-53
2023/06/28 00:29:18;;;;;;;8.45;4.00;;;;;;;16.36;93.41;101829.75;4995129;28;20061;-55
2023/06/28 00:31:43;;;;;;;7.82;4.30;;;;;;;16.48;92.24;101831.69;4995559;28;20393;-54
2023/06/28 00:34:08;;;;;;;8.70;4.68;;;;;;;16.52;92.07;101834.41;4994466;28;20562;-53
2023/06/28 00:36:33;;;;;;;8.18;4.68;;;;;;;16.51;91.46;101832.63;4997130;28;20041;-55
2023/06/28 00:38:59;;;;;;;8.48;4.90;;;;;;;16.57;92.60;101837.09;4996507;28;20416;-54
2023/06/28 00:41:24;;;;;;;8.90;4.40;;;;;;;16.53;92.73;101840.53;4995694;28;20638;-55
2023/06/28 00:43:49;;;;;;;8.82;4.35;;;;;;;16.57;93.02;101831.84;4994738;28;20497;-54
2023/06/28 00:46:15;;;;;;;8.35;4.75;;;;;;;16.62;92.45;101840.66;4995401;28;20034;-55
2023/06/28 00:48:40;;;;;;;7.78;4.38;;;;;;;16.69;92.07;101836.38;4993307;28;20041;-54
2023/06/28 00:51:06;;;;;;;8.02;4.60;;;;;;;16.64;92.79;101833.69;4991312;28;20018;-54
2023/06/28 00:53:32;;;;;;;7.60;5.00;;;;;;;16.61;92.57;101838.91;4995277;28;20033;-55
2023/06/28 00:55:57;;;;;;;11.07;5.35;;;;;;;16.62;92.73;101834.53;4991965;28;20053;-55
2023/06/28 00:58:25;;;;;;;6.63;4.53;;;;;;;16.60;92.51;101844.16;4995151;28;20029;-54
2023/06/28 01:00:50;;;;;;;6.70;4.43;;;;;;;16.67;91.43;101833.75;4992684;28;20073;-54
2023/06/28 01:03:18;;;;;;;9.25;4.68;;;;;;;16.64;92.38;101828.44;4992691;28;20565;-55
2023/06/28 01:05:46;;;;;;;9.50;4.55;;;;;;;16.68;92.42;101834.63;4957392;28;20038;-54
2023/06/28 01:08:13;;;;;;;7.43;4.28;;;;;;;16.71;92.88;101839.91;4977342;28;20022;-55
2023/06/28 01:10:39;;;;;;;8.38;4.57;;;;;;;16.68;92.75;101829.34;4994863;28;20017;-54
2023/06/28 01:13:05;;;;;;;8.98;4.63;;;;;;;16.64;93.19;101843.31;4996602;28;20077;-54
2023/06/28 01:15:30;;;;;;;7.32;4.60;;;;;;;16.68;93.13;101835.53;4994273;28;20025;-54
2023/06/28 01:17:55;;;;;;;11.32;4.25;;;;;;;16.71;92.26;101834.66;4996860;28;20112;-54
2023/06/28 01:20:21;;;;;;;11.27;5.07;;;;;;;16.73;92.11;101827.69;4996048;28;20056;-55
2023/06/28 01:22:53;;;;;;;7.10;4.57;;;;;;;16.78;91.64;101833.88;4995665;28;20034;-54
2023/06/28 01:25:19;;;;;;;9.38;4.50;;;;;;;16.78;91.50;101835.63;4996297;28;20113;-54
2023/06/28 01:27:46;;;;;;;9.57;5.05;;;;;;;16.77;91.19;101833.84;4996381;28;20034;-54
2023/06/28 01:30:14;;;;;;;11.15;4.85;;;;;;;16.76;91.19;101829.47;4996377;28;20025;-55
2023/06/28 01:32:40;;;;;;;8.90;4.45;;;;;;;16.80;92.58;101829.53;4994408;28;20398;-54
2023/06/28 01:35:06;;;;;;;8.50;4.32;;;;;;;16.81;91.92;101828.66;4996223;28;20026;-55
2023/06/28 01:37:32;;;;;;;8.25;4.63;;;;;;;16.81;91.27;101820.75;4994944;28;20072;-55
2023/06/28 01:39:57;;;;;;;5.85;4.15;;;;;;;16.81;91.80;101823.38;4995324;28;20049;-53
2023/06/28 01:42:22;;;;;;;8.05;4.32;;;;;;;16.80;91.06;101826.91;4993484;28;21088;-55
2023/06/28 01:44:48;;;;;;;7.80;4.30;;;;;;;16.78;91.39;101825.97;4993343;28;20030;-55
2023/06/28 01:47:13;;;;;;;11.18;4.63;;;;;;;16.76;91.14;101827.72;4973233;28;20077;-55
2023/06/28 01:49:39;;;;;;;7.88;4.47;;;;;;;16.74;91.40;101828.56;4991142;28;20044;-55
2023/06/28 01:52:04;;;;;;;6.88;4.43;;;;;;;16.75;91.21;101831.22;4993284;28;20349;-55
2023/06/28 01:54:32;;;;;;;6.72;4.47;;;;;;;16.76;91.71;101826.84;4992347;28;20056;-54
2023/06/28 01:56:57;;;;;;;9.15;4.25;;;;;;;16.75;91.73;101822.44;4976042;28;20421;-55
2023/06/28 01:59:22;;;;;;;11.55;4.40;;;;;;;16.67;91.13;101823.22;4994119;28;20034;-55
2023/06/28 02:01:48;;;;;;;7.35;4.43;;;;;;;16.71;91.86;101825.88;4988504;28;20509;-55
2023/06/28 02:04:13;;;;;;;8.32;4.35;;;;;;;16.66;90.83;101820.56;4992708;28;20058;-54
2023/06/28 02:06:39;;;;;;;6.88;4.10;;;;;;;16.71;91.60;101818.00;4975556;28;20057;-55
2023/06/28 02:09:05;;;;;;;7.07;4.18;;;;;;;16.70;91.02;101814.47;4992848;28;20065;-55
2023/06/28 02:11:30;;;;;;;7.15;4.20;;;;;;;16.74;90.86;101812.75;4992185;28;20077;-55
2023/06/28 02:13:55;;;;;;;8.88;4.60;;;;;;;16.74;91.89;101810.13;4995173;28;20493;-55
2023/06/28 02:16:22;;;;;;;7.47;4.20;;;;;;;16.67;91.19;101815.31;4994603;28;20068;-55
2023/06/28 02:18:49;;;;;;;7.47;4.18;;;;;;;16.68;92.17;101817.09;4975954;28;20033;-55
2023/06/28 02:21:16;;;;;;;8.18;4.40;;;;;;;16.68;91.77;101808.28;4994783;28;20034;-55
2023/06/28 02:23:41;;;;;;;6.50;4.22;;;;;;;16.64;91.35;101796.84;4994454;28;20033;-55
2023/06/28 02:26:06;;;;;;;6.47;3.92;;;;;;;16.65;91.79;101797.72;4995091;28;20030;-55
2023/06/28 02:28:32;;;;;;;7.20;3.88;;;;;;;16.54;90.74;101804.59;4994571;28;20490;-55
2023/06/28 02:30:57;;;;;;;8.23;3.75;;;;;;;16.52;91.47;101792.31;4994425;28;20792;-55
2023/06/28 02:33:22;;;;;;;9.07;3.58;;;;;;;16.52;92.18;101797.56;4994147;28;20421;-54
2023/06/28 02:35:48;;;;;;;6.72;3.75;;;;;;;16.53;92.50;101798.44;4995374;28;20246;-55
2023/06/28 02:38:13;;;;;;;6.75;3.42;;;;;;;16.54;92.25;101794.06;4995171;28;20037;-55
2023/06/28 02:40:39;;;;;;;6.60;3.72;;;;;;;16.43;91.56;101796.56;4995294;28;20177;-55
2023/06/28 02:43:05;;;;;;;8.60;3.63;;;;;;;16.37;91.29;101802.59;4992000;28;20029;-55
2023/06/28 02:45:30;;;;;;;7.43;3.70;;;;;;;16.39;91.83;101795.59;4993654;28;20041;-55
2023/06/28 02:47:55;;;;;;;7.68;3.80;;;;;;;16.36;91.57;101795.56;4992663;28;20034;-55
2023/06/28 02:50:20;;;;;;;9.20;4.40;;;;;;;16.28;92.41;101799.81;4989128;28;20485;-55
2023/06/28 02:52:46;;;;;;;7.93;3.88;;;;;;;16.24;92.10;101795.41;4993141;28;20364;-55
2023/06/28 02:55:11;;;;;;;7.65;3.65;;;;;;;16.26;92.86;101798.91;4992769;28;20022;-55
2023/06/28 02:57:37;;;;;;;7.22;3.90;;;;;;;16.27;93.65;101795.44;4973189;28;20555;-55
2023/06/28 03:00:03;;;;;;;5.80;3.70;;;;;;;16.21;92.74;101800.59;4993564;28;20027;-55
2023/06/28 03:02:28;;;;;;;8.25;4.13;;;;;;;16.27;94.87;101796.31;4991910;28;20442;-55
2023/06/28 03:04:53;;;;;;;7.30;4.00;;;;;;;16.22;93.53;101803.25;4993720;28;20102;-55
2023/06/28 03:07:19;;;;;;;8.10;3.88;;;;;;;16.25;94.83;101795.41;4993950;28;20026;-55
2023/06/28 03:09:44;;;;;;;5.80;3.60;;;;;;;16.27;94.33;101796.31;4989324;28;20037;-55
2023/06/28 03:12:10;;;;;;;10.07;4.30;;;;;;;16.22;93.43;101799.72;4989811;28;20042;-55
2023/06/28 03:14:36;;;;;;;6.20;3.72;;;;;;;16.28;95.26;101797.19;4994037;28;20573;-55
2023/06/28 03:17:02;;;;;;;8.10;4.18;;;;;;;16.30;94.02;101803.38;4994038;28;20428;-55
2023/06/28 03:19:27;;;;;;;8.20;4.20;;;;;;;16.29;94.22;101798.97;4992421;28;20030;-55
2023/06/28 03:21:52;;;;;;;7.20;4.30;;;;;;;16.26;94.61;101801.56;4992235;28;20026;-55
2023/06/28 03:24:18;;;;;;;7.90;4.95;;;;;;;16.17;94.82;101790.00;4990835;28;20034;-55
2023/06/28 03:26:43;;;;;;;7.90;4.68;;;;;;;16.16;96.03;101785.63;4993705;28;20493;-55
2023/06/28 03:29:08;;;;;;;7.13;5.03;;;;;;;16.11;95.53;101783.78;4995192;28;20022;-55
2023/06/28 03:31:34;;;;;;;7.60;4.50;;;;;;;16.12;95.21;101786.44;4996176;28;20547;-55
2023/06/28 03:33:59;;;;;;;9.80;4.95;;;;;;;16.12;94.87;101783.81;4993937;28;20133;-55
2023/06/28 03:36:27;;;;;;;12.38;5.45;;;;;;;16.10;95.01;101782.88;4995571;28;20034;-55
2023/06/28 03:38:53;;;;;;;10.85;5.40;;;;;;;15.99;94.09;101785.38;4996313;28;20546;-55
2023/06/28 03:41:18;;;;;;;8.98;5.13;;;;;;;15.94;95.08;101778.25;4997872;28;20117;-55
2023/06/28 03:43:43;;;;;;;8.70;4.90;;;;;;;15.94;95.35;101781.75;4996972;28;20485;-55
2023/06/28 03:46:09;;;;;;;8.38;5.30;;;;;;;15.89;95.35;101785.16;4993753;28;20108;-54
2023/06/28 03:48:34;;;;;;;9.82;5.57;;;;;;;15.84;95.37;101785.09;4993023;28;20032;-55
2023/06/28 03:50:59;;;;;;;11.23;5.07;;;;;;;15.85;95.27;101788.63;4996479;28;20037;-55
2023/06/28 03:53:25;;;;;;;9.70;4.65;;;;;;;15.83;95.24;101785.97;4995506;28;20034;-55
2023/06/28 03:55:50;;;;;;;9.85;4.78;;;;;;;15.80;96.65;101789.44;4995362;28;20034;-56
2023/06/28 03:58:15;;;;;;;9.98;5.15;;;;;;;15.84;97.14;101786.84;4995067;28;21139;-55
2023/06/28 04:00:41;;;;;;;10.15;5.13;;;;;;;15.81;96.33;101780.69;4993813;28;20460;-56
2023/06/28 04:03:07;;;;;;;11.10;5.03;;;;;;;15.83;96.32;101783.34;4993590;28;20030;-55
2023/06/28 04:05:32;;;;;;;7.78;4.93;;;;;;;15.77;97.71;101778.84;4995031;28;20176;-55
2023/06/28 04:07:58;;;;;;;8.18;5.18;;;;;;;15.73;98.64;101778.72;4989976;28;20109;-55
2023/06/28 04:10:25;;;;;;;9.50;5.30;;;;;;;15.69;98.27;101780.44;4995793;28;20041;-56
2023/06/28 04:12:50;;;;;;;10.68;5.38;;;;;;;15.73;98.85;101778.72;4996808;28;20087;-55
2023/06/28 04:15:15;;;;;;;9.15;4.82;;;;;;;15.76;97.53;101770.94;4992157;28;20393;-56
2023/06/28 04:17:41;;;;;;;9.93;4.68;;;;;;;15.74;96.54;101765.66;4995299;28;20030;-56
2023/06/28 04:20:07;;;;;;;8.85;5.45;;;;;;;15.63;98.68;101764.56;4993283;28;20046;-56
2023/06/28 04:22:33;;;;;;;10.65;5.00;;;;;;;15.64;100.00;101766.31;4997620;28;20045;-55
2023/06/28 04:24:58;;;;;;;9.18;5.07;;;;;;;15.67;99.55;101770.75;4995003;28;20037;-55
2023/06/28 04:27:23;;;;;;;8.75;4.93;;;;;;;15.67;98.43;101773.38;4996822;28;20405;-55
2023/06/28 04:29:49;;;;;;;8.90;5.15;;;;;;;15.70;97.30;101779.59;4993465;28;20485;-56
2023/06/28 04:32:42;;;;;;;7.65;4.68;;;;;;;15.69;95.95;101775.19;4993774;28;20026;-55
2023/06/28 04:35:09;;;;;;;8.40;5.05;;;;;;;15.65;96.59;101774.22;4991052;28;20137;-54
2023/06/28 04:37:39;;;;;;;7.28;4.97;;;;;;;15.67;99.02;101771.66;4993054;28;20487;-55
2023/06/28 04:40:05;;;;;;;10.63;5.10;;;;;;;15.73;98.94;101777.00;4993445;28;20042;-55
2023/06/28 04:42:31;;;;;;;9.40;5.60;;;;;;;15.76;98.49;101776.19;4992206;28;20056;-55
2023/06/28 04:44:59;;;;;;;9.70;4.97;;;;;;;15.76;98.90;101779.69;4977971;28;20445;-54
2023/06/28 04:47:28;;;;;;;9.43;4.85;;;;;;;15.87;99.70;101789.53;4994373;28;20053;-55
2023/06/28 04:49:54;;;;;;;10.52;4.80;;;;;;;15.82;100.00;101785.06;4991942;28;20029;-55
2023/06/28 04:52:21;;;;;;;9.77;5.40;;;;;;;15.86;99.86;101777.25;4994357;28;20423;-55
2023/06/28 04:54:47;;;;;;;8.98;5.35;;;;;;;15.81;99.42;101780.69;4992369;28;20405;-55
2023/06/28 04:57:13;;;;;;;10.10;5.70;;;;;;;15.70;100.00;101778.69;4992784;28;20583;-55
2023/06/28 04:59:39;;;;;;;11.30;5.47;;;;;;;15.74;100.00;101775.25;4991814;28;20450;-55
2023/06/28 05:02:05;;;;;;;10.73;5.78;;;;;;;15.76;100.00;101779.69;4993715;28;20032;-55
2023/06/28 05:04:32;;;;;;;7.15;5.35;;;;;;;15.74;100.00;101784.03;4994346;28;20061;-55
2023/06/28 05:07:04;;;;;;;9.30;5.28;;;;;;;15.71;100.00;101778.72;4992163;28;20028;-54
2023/06/28 05:09:30;;;;;;;9.35;5.30;;;;;;;15.71;99.60;101776.06;4993714;28;20034;-55
2023/06/28 05:11:56;;;;;;;10.80;5.45;;;;;;;15.59;100.00;101770.63;4993415;28;20030;-55
2023/06/28 05:14:22;;;;;;;11.10;5.78;;;;;;;15.48;100.00;101787.09;4995005;28;20034;-55
2023/06/28 05:16:48;;;;;;;12.55;6.00;;;;;;;15.55;100.00;101776.69;4977839;28;20062;-55
2023/06/28 05:19:13;;;;;;;11.70;5.88;;;;;;;15.66;100.00;101775.13;4993147;28;20138;-55
2023/06/28 05:21:38;;;;;;;9.93;5.85;;;;;;;15.75;100.00;101777.91;4993887;28;20033;-54
2023/06/28 05:24:04;;;;;;;10.77;5.95;;;;;;;15.75;100.00;101774.41;4990880;28;20049;-55
2023/06/28 05:26:29;;;;;;;9.68;5.65;;;;;;;15.82;100.00;101779.81;4992845;28;20489;-56
2023/06/28 05:28:55;;;;;;;11.00;5.97;;;;;;;15.89;100.00;101780.81;4995630;28;20897;-55
2023/06/28 05:31:20;;;;;;;12.32;6.78;;;;;;;15.92;100.00;101774.72;4992782;28;20125;-55
2023/06/28 05:33:45;;;;;;;10.52;5.88;;;;;;;15.95;100.00;101782.66;4994482;28;20072;-55
2023/06/28 05:36:10;;;;;;;11.15;6.70;;;;;;;15.96;100.00;101789.66;4993840;28;20041;-55
2023/06/28 05:38:36;;;;;;;12.50;6.00;;;;;;;15.95;100.00;101782.66;4991528;28;20560;-55
2023/06/28 05:41:12;;;;;;;11.80;6.28;;;;;;;15.91;100.00;101775.59;4992223;28;20026;-55
2023/06/28 05:43:37;;;;;;;11.10;6.47;;;;;;;15.81;100.00;101774.53;4992852;28;20056;-55
2023/06/28 05:46:03;;;;;;;11.65;6.70;;;;;;;15.76;100.00;101770.94;4993030;28;20026;-55
2023/06/28 05:48:30;;;;;;;11.00;6.25;;;;;;;15.74;100.00;101763.03;4992456;28;20042;-55
2023/06/28 05:50:55;;;;;;;12.60;6.50;;;;;;;15.73;100.00;101766.50;4993082;28;20053;-55
2023/06/28 05:53:21;;;;;;;11.15;6.45;;;;;;;15.73;100.00;101762.97;4994389;28;20077;-55
2023/06/28 05:55:46;;;;;;;12.30;6.88;;;;;;;15.77;100.00;101767.41;4990400;28;20041;-55
2023/06/28 05:58:11;;;;;;;12.57;6.43;;;;;;;15.79;100.00;101768.38;4995216;28;20063;-55
2023/06/28 06:00:36;;;;;;;10.52;6.93;;;;;;;15.88;100.00;101765.03;4993052;28;20034;-55
2023/06/28 06:03:02;;;;;;;10.45;6.50;;;;;;;15.90;100.00;101763.28;4989295;28;20105;-55
2023/06/28 06:05:28;;;;;;;12.73;6.35;;;;;;;15.94;100.00;101767.75;4993475;28;20409;-55
2023/06/28 06:07:53;;;;;;;12.23;6.57;;;;;;;15.97;100.00;101765.16;4994508;28;20080;-55
2023/06/28 06:10:18;;;;;;;11.70;6.93;;;;;;;15.98;100.00;101756.44;4994421;28;20037;-55
2023/06/28 06:12:44;;;;;;;16.65;6.90;;;;;;;16.05;100.00;101762.66;4994509;28;20030;-54
2023/06/28 06:15:09;;;;;;;13.07;7.22;;;;;;;16.08;100.00;101757.47;4995161;28;21139;-55
2023/06/28 06:17:35;;;;;;;12.70;7.22;;;;;;;16.12;100.00;101754.91;4993531;28;20378;-55
2023/06/28 06:20:00;;;;;;;13.82;8.02;;;;;;;16.17;100.00;101757.59;4993619;28;20054;-55
2023/06/28 06:22:26;;;;;;;14.00;7.82;;;;;;;16.16;100.00;101761.06;4995159;28;20034;-54
2023/06/28 06:24:51;;;;;;;16.13;7.55;;;;;;;16.20;100.00;101762.88;4994291;28;20049;-55
2023/06/28 06:27:16;;;;;;;15.40;8.07;;;;;;;16.20;100.00;101762.88;4977490;28;20034;-55
2023/06/28 06:29:42;;;;;;;16.38;8.50;;;;;;;16.22;100.00;101771.72;4992180;28;20095;-55
2023/06/28 06:32:07;;;;;;;13.98;7.60;;;;;;;16.25;100.00;101763.84;4995000;28;20400;-55
2023/06/28 06:34:33;;;;;;;15.55;8.93;;;;;;;16.28;100.00;101760.38;4994269;28;20058;-55
2023/06/28 06:36:58;;;;;;;12.45;8.27;;;;;;;16.32;100.00;101763.09;4995264;28;20500;-55
2023/06/28 06:39:23;;;;;;;16.75;9.25;;;;;;;16.33;100.00;101756.06;4994109;28;20071;-55
2023/06/28 06:41:48;;;;;;;15.20;8.88;;;;;;;16.32;100.00;101767.44;4993243;28;20500;-54
2023/06/28 06:44:14;;;;;;;16.55;8.23;;;;;;;16.35;100.00;101764.84;4993818;28;20034;-55
2023/06/28 06:46:39;;;;;;;16.80;9.10;;;;;;;16.38;100.00;101767.56;4991865;28;20121;-54
2023/06/28 06:49:04;;;;;;;15.15;9.60;;;;;;;16.39;100.00;101769.31;4988764;28;20497;-56
2023/06/28 06:51:30;;;;;;;16.88;9.35;;;;;;;16.40;100.00;101773.72;4986249;28;20496;-54
2023/06/28 06:53:55;;;;;;;14.05;7.38;;;;;;;16.41;99.48;101772.84;4989254;28;20023;-55
2023/06/28 06:56:24;;;;;;;15.00;8.73;;;;;;;16.38;100.00;101777.16;4994263;28;20535;-55
2023/06/28 06:58:49;;;;;;;18.02;9.02;;;;;;;16.30;99.91;101769.19;4974674;28;20033;-55
2023/06/28 07:01:14;;;;;;;13.88;7.43;;;;;;;16.33;99.53;101777.97;4989982;28;20026;-54
2023/06/28 07:03:40;;;;;;;14.50;8.05;;;;;;;16.38;100.00;101778.06;4993977;28;20052;-55
2023/06/28 07:06:05;;;;;;;17.48;9.02;;;;;;;16.40;100.00;101772.84;4991574;28;20075;-55
2023/06/28 07:08:31;;;;;;;18.10;8.70;;;;;;;16.43;100.00;101776.38;4997507;28;20523;-54
2023/06/28 07:11:02;;;;;;;14.23;8.07;;;;;;;16.42;99.48;101781.63;5007829;23;20088;-96
2023/06/28 07:13:30;;;;;;;14.98;8.02;;;;;;;16.40;99.33;101778.97;4970708;28;20200;-96
2023/06/28 07:16:01;;;;;;;16.20;7.40;;;;;;;16.41;98.79;101778.13;4974392;28;20081;-96
2023/06/28 07:18:30;;;;;;;13.25;7.10;;;;;;;16.45;99.66;101779.03;4978527;28;20022;-96
2023/06/28 07:20:56;;;;;;;17.25;7.28;;;;;;;16.49;98.64;101786.09;4998121;28;20022;-96
2023/06/28 07:23:30;;;;;;;14.10;7.50;;;;;;;16.47;99.78;101777.31;4995408;28;20026;-95
2023/06/28 07:26:00;;;;;;;16.30;7.22;;;;;;;16.46;98.70;101788.69;4997195;28;20490;-96
2023/06/28 07:28:28;;;;;;;14.23;7.95;;;;;;;16.46;98.61;101792.19;5010192;28;20026;-95
2023/06/28 07:30:57;;;;;;;14.40;6.85;;;;;;;16.43;98.60;101781.63;4994380;28;20072;-94
2023/06/28 07:33:29;;;;;;;14.52;7.20;;;;;;;16.46;97.77;101797.47;4990678;28;20026;-94
2023/06/28 07:35:55;;;;;;;14.20;7.13;;;;;;;16.46;98.75;101794.84;4991945;28;20025;-93
2023/06/28 07:38:21;;;;;;;12.77;6.70;;;;;;;16.46;98.42;101784.31;4994534;28;20132;-95
2023/06/28 07:40:53;;;;;;;15.48;6.30;;;;;;;16.48;97.06;101787.88;4994531;28;20018;-94
2023/06/28 07:43:21;;;;;;;13.02;6.70;;;;;;;16.50;96.62;101786.13;4988842;28;20037;-92
2023/06/28 07:45:59;;;;;;;12.38;6.80;;;;;;;16.49;95.25;101786.09;4991393;28;20018;-95
2023/06/28 07:48:27;;;;;;;15.65;6.13;;;;;;;16.48;96.72;101785.22;4992750;28;20112;-94
2023/06/28 07:50:53;;;;;;;12.73;6.73;;;;;;;16.50;94.98;101783.50;5007345;28;20018;-94
2023/06/28 07:53:18;;;;;;;14.93;6.75;;;;;;;16.51;94.81;101785.28;4994244;28;20084;-95
2023/06/28 07:55:46;;;;;;;13.43;6.95;;;;;;;16.52;94.02;101780.88;4993978;28;20161;-93
2023/06/28 07:58:12;;;;;;;14.27;7.18;;;;;;;16.52;94.81;101775.63;5011432;28;20057;-94
2023/06/28 08:00:38;;;;;;;14.15;6.97;;;;;;;16.55;94.33;101780.94;4988518;28;20063;-94
2023/06/28 08:03:03;;;;;;;14.50;6.45;;;;;;;16.56;93.64;101787.09;4983326;28;20484;-94
2023/06/28 08:05:37;;;;;;;13.43;6.82;;;;;;;16.59;93.90;101777.47;5011780;28;20480;-94
2023/06/28 08:08:03;;;;;;;16.48;7.38;;;;;;;16.60;94.66;101775.75;5014040;28;20034;-96
2023/06/28 08:10:35;;;;;;;15.45;7.05;;;;;;;16.61;94.29;101781.03;4993103;28;20057;-95
2023/06/28 08:13:03;;;;;;;13.80;6.70;;;;;;;16.63;93.78;101784.56;5018038;28;20021;-95
2023/06/28 08:15:36;;;;;;;14.50;6.97;;;;;;;16.66;93.04;101786.34;5018133;28;20476;-95
2023/06/28 08:18:02;;;;;;;11.88;6.55;;;;;;;16.67;92.56;101781.09;5017057;28;20474;-95
2023/06/28 08:20:33;;;;;;;13.35;6.75;;;;;;;16.66;91.33;101773.19;5015801;28;20022;-96
2023/06/28 08:22:58;;;;;;;13.95;6.25;;;;;;;16.68;91.62;101776.72;5020105;28;20108;-96
2023/06/28 08:25:24;;;;;;;13.73;6.43;;;;;;;16.71;91.94;101768.84;5035367;28;20049;-96
2023/06/28 08:28:02;;;;;;;;;;;;;;;;;;;;;
2023/06/28 08:30:34;;;;;;;16.07;7.10;;;;;;;16.77;91.37;101774.22;5032342;28;20024;-95
2023/06/28 08:33:02;;;;;;;11.82;5.93;;;;;;;16.81;90.21;101778.63;5012423;28;20406;-96
2023/06/28 08:35:34;;;;;;;11.65;6.30;;;;;;;16.89;90.43;101785.78;5015660;28;20031;-95
2023/06/28 08:38:03;;;;;;;11.00;5.88;;;;;;;16.95;90.11;101786.75;5026164;28;20125;-95
2023/06/28 08:40:31;;;;;;;13.98;5.88;;;;;;;17.01;90.68;101791.22;5031121;28;20034;-96
2023/06/28 08:43:02;;;;;;;12.30;5.90;;;;;;;17.06;90.42;101786.91;5015369;28;20043;-94
2023/06/28 08:45:33;;;;;;;13.43;6.18;;;;;;;17.10;89.69;101786.03;5013871;28;20092;-96
2023/06/28 08:48:03;;;;;;;12.98;5.90;;;;;;;17.15;88.03;101786.13;5028006;28;20021;-95
2023/06/28 08:50:43;;;;;;;12.48;5.65;;;;;;;17.16;86.61;101786.13;5017211;28;20021;-95
2023/06/28 08:53:13;;;;;;;13.50;5.88;;;;;;;17.26;88.57;101784.47;5014387;28;20108;-96
2023/06/28 08:55:41;;;;;;;17.48;6.70;;;;;;;17.34;88.47;101789.84;5015811;28;20039;-95
2023/06/28 08:58:12;;;;;;;12.48;5.97;;;;;;;17.43;89.48;101787.28;5017773;28;20406;-95
2023/06/28 09:00:41;;;;;;;16.25;6.35;;;;;;;17.44;85.72;101781.16;5017883;28;20028;-96
2023/06/28 09:03:10;;;;;;;13.48;6.25;;;;;;;17.46;86.27;101782.06;5016586;28;20028;-95
2023/06/28 09:05:42;;;;;;;12.73;5.85;;;;;;;17.51;85.80;101777.72;5019304;28;20029;-96
2023/06/28 09:08:11;;;;;;;11.95;5.63;;;;;;;17.60;85.58;101773.38;5016499;28;20537;-96
2023/06/28 09:10:40;;;;;;;15.07;6.07;;;;;;;17.63;84.00;101776.94;4865492;28;3821369;-95
2023/06/28 09:13:06;;;;;;;12.68;5.85;;;;;;;17.67;84.39;101776.13;4976411;28;20069;-96
2023/06/28 09:15:42;;;;;;;14.52;6.18;;;;;;;17.71;84.16;101774.38;4992310;28;20424;-96
2023/06/28 09:18:20;;;;;;;12.80;5.80;;;;;;;17.79;86.17;101766.56;5007057;28;20399;-93
2023/06/28 09:20:57;;;;;;;14.02;6.30;;;;;;;17.87;84.60;101762.22;4992269;28;20120;-94
2023/06/28 09:23:30;;;;;;;13.45;6.15;;;;;;;17.97;85.62;101766.72;4990099;28;20083;-94
2023/06/28 09:25:59;;;;;;;13.32;6.03;;;;;;;18.07;84.31;101767.69;4995866;28;20033;-93
2023/06/28 09:28:35;;;;;;;12.85;6.25;;;;;;;18.13;82.69;101766.84;5013831;28;20038;-94
2023/06/28 09:31:05;;;;;;;11.23;6.13;;;;;;;18.08;82.33;101762.41;5009968;28;20029;-95
2023/06/28 09:33:31;;;;;;;12.98;5.65;;;;;;;18.09;82.18;101765.94;4995054;28;20033;-94
2023/06/28 09:36:00;;;;;;;14.45;5.55;;;;;;;18.11;82.21;101772.09;5011329;28;20030;-93
2023/06/28 09:38:27;;;;;;;16.45;6.53;;;;;;;18.15;82.15;101773.91;4994766;28;20029;-95
2023/06/28 09:41:01;;;;;;;12.30;5.63;;;;;;;18.16;79.68;101769.50;4993803;28;20022;-95
2023/06/28 09:43:35;;;;;;;13.02;5.32;;;;;;;18.20;81.66;101777.44;4994812;28;20029;-94
2023/06/28 09:46:17;;;;;;;13.23;5.28;;;;;;;18.32;82.72;101771.38;4993558;28;20030;-94
2023/06/28 09:48:52;;;;;;;10.35;5.18;;;;;;;18.47;81.29;101770.59;4992990;28;20044;-94
2023/06/28 09:51:25;;;;;;;10.10;4.85;;;;;;;18.63;81.36;101768.91;4993818;28;20014;-94
2023/06/28 09:53:53;;;;;;;12.70;5.10;;;;;;;18.63;78.17;101773.31;5009332;28;20055;-95
2023/06/28 09:56:19;;;;;;;13.02;4.90;;;;;;;18.72;78.52;101762.78;4990843;28;20034;-95
2023/06/28 09:59:09;;;;;;;14.20;5.15;;;;;;;18.72;78.11;101763.66;4993585;28;20526;-93
2023/06/28 10:01:40;;;;;;;;;;;;;;;18.86;79.39;101762.84;5010840;28;20053;-93
2023/06/28 10:04:12;;;;;;;11.13;5.60;;;;;;;18.92;76.54;101757.63;4994378;28;19973;-94
2023/06/28 10:06:38;;;;;;;12.82;5.20;;;;;;;19.00;78.85;101757.66;5011653;28;20022;-94
2023/06/28 10:09:04;;;;;;;12.38;5.32;;;;;;;19.11;76.73;101755.91;4995053;28;20029;-94
2023/06/28 10:11:34;;;;;;;12.07;5.03;;;;;;;19.25;78.39;101758.59;5010659;28;20054;-93
2023/06/28 10:14:04;;;;;;;11.68;5.05;;;;;;;19.39;76.99;101750.69;5009051;28;20049;-94
2023/06/28 10:16:36;;;;;;;10.95;5.22;;;;;;;19.50;76.92;101753.38;5008799;28;20037;-95
2023/06/28 10:19:02;;;;;;;11.20;4.95;;;;;;;19.60;76.55;101747.19;4993099;28;20040;-95
2023/06/28 10:21:28;;;;;;;10.30;4.80;;;;;;;19.68;75.42;101741.91;4997016;28;20038;-96
2023/06/28 10:23:58;;;;;;;12.10;4.95;;;;;;;19.76;74.26;101742.81;4995062;28;20040;-95
2023/06/28 10:26:28;;;;;;;13.15;5.43;;;;;;;19.77;72.58;101739.28;4987746;28;20021;-95
2023/06/28 10:28:57;;;;;;;11.40;5.20;;;;;;;19.81;73.95;101743.69;4992974;28;20052;-96
2023/06/28 10:31:23;;;;;;;9.25;4.82;;;;;;;19.85;71.97;101740.16;4995639;28;20022;-95
2023/06/28 10:33:57;;;;;;;10.65;4.68;;;;;;;19.88;72.28;101748.09;4994499;28;20032;-96
2023/06/28 10:36:23;;;;;;;9.32;4.75;;;;;;;19.97;72.21;101742.81;4993674;28;20105;-96
2023/06/28 10:38:51;;;;;;;11.05;4.78;;;;;;;20.04;72.40;101740.16;4992834;28;20030;-95
2023/06/28 10:41:21;;;;;;;10.18;4.72;;;;;;;20.22;73.54;101741.88;4996296;28;20034;-96
2023/06/28 10:43:51;;;;;;;8.07;4.55;;;;;;;20.36;71.62;101748.03;4994978;28;20033;-96
2023/06/28 10:46:22;;;;;;;11.88;4.53;;;;;;;20.48;70.12;101736.53;4995764;28;20061;-96
2023/06/28 10:48:55;;;;;;;13.60;4.80;;;;;;;20.58;69.94;101738.28;4995096;28;20076;-96
2023/06/28 10:51:26;;;;;;;10.63;4.65;;;;;;;20.69;68.53;101737.38;4992651;28;20025;-96
2023/06/28 10:54:05;;;;;;;9.30;4.07;;;;;;;20.76;69.49;101744.41;4995278;28;20033;-96
2023/06/28 10:56:47;;;;;;;9.02;4.22;;;;;;;20.73;68.20;101736.47;4992214;28;20022;-96
2023/06/28 10:59:19;;;;;;;13.60;4.60;;;;;;;20.70;69.84;101736.47;4993852;28;20128;-96
2023/06/28 11:01:59;;;;;;;8.65;4.32;;;;;;;20.78;70.06;101735.56;4995911;28;20022;-96
2023/06/28 11:04:26;;;;;;;9.82;4.45;;;;;;;20.96;69.67;101731.94;4990031;28;20053;-96
2023/06/28 11:07:03;;;;;;;12.02;4.75;;;;;;;21.19;69.80;101734.44;4992949;28;20049;-96
2023/06/28 11:09:29;;;;;;;8.98;5.15;;;;;;;21.24;65.58;101726.47;4995154;28;20041;-96
2023/06/28 11:12:03;;;;;;;9.05;4.38;;;;;;;21.33;68.03;101721.13;4993563;28;20062;-96
2023/06/28 11:14:36;;;;;;;11.95;4.57;;;;;;;21.56;68.79;101713.91;4994964;28;20028;-96
2023/06/28 11:17:10;;;;;;;12.65;5.00;;;;;;;21.77;66.88;101718.13;4991697;28;20045;-96
2023/06/28 11:19:42;;;;;;;8.85;4.60;;;;;;;21.97;67.17;101716.19;4994170;28;20023;-96
2023/06/28 11:22:08;;;;;;;10.13;5.00;;;;;;;22.21;68.08;101720.34;4990605;28;20162;-96